Terminal Aerodrome Forecast
Issued by NWS Charleston, WV

Home | Current Version | Previous Version | Text Only | Print | Product List | Glossary On
Versions: 1 2 3 4 5 6 7 8 9 10 11 12 13 14 15 16 17 18 19 20 21 22 23 24
000
FTUS41 KRLX 250500
TAFBKW
TAF
KBKW 250536Z 2506/2606 00000KT 3SM BR BKN005
      TEMPO 2506/2508 1SM BR
     FM250800 VRB03KT 1/2SM FG BKN005
      TEMPO 2508/2512 2SM BR SCT005
     FM251200 VRB03KT 4SM BR BKN010
     FM251300 VRB03KT 6SM HZ SCT020
     FM251500 VRB03KT P6SM SCT025
     FM251900 VRB03KT P6SM SCT035
     FM252300 VRB03KT P6SM SKC=

USA.gov is the U.S. government's official web portal to all federal, state and local government web resources and services.